createdAt,value
2017-05-05T00:01:58.073Z,13.76
2017-05-05T00:04:25.703Z,13.24
2017-05-05T00:06:53.412Z,14.70
2017-05-05T00:09:20.932Z,12.10
2017-05-05T00:11:48.489Z,13.98
2017-05-05T00:14:16.019Z,13.22
2017-05-05T00:16:43.854Z,12.94
2017-05-05T00:19:11.391Z,13.38
2017-05-05T00:21:38.915Z,11.56
2017-05-05T00:24:06.467Z,12.14
2017-05-05T00:26:33.995Z,14.56
2017-05-05T00:29:01.535Z,11.82
2017-05-05T00:31:29.061Z,11.94
2017-05-05T00:33:56.985Z,13.02
2017-05-05T00:36:24.530Z,13.60
2017-05-05T00:38:52.084Z,11.34
2017-05-05T00:41:19.995Z,12.82
2017-05-05T00:43:47.551Z,13.10
2017-05-05T00:46:15.096Z,12.20
2017-05-05T00:48:42.630Z,14.90
2017-05-05T00:51:10.501Z,13.92
2017-05-05T00:53:38.013Z,15.16
2017-05-05T00:56:05.534Z,13.20
2017-05-05T00:58:33.088Z,14.10
2017-05-05T01:01:00.608Z,13.76
2017-05-05T01:03:28.192Z,13.12
2017-05-05T01:05:55.712Z,11.92
2017-05-05T01:08:23.535Z,12.56
2017-05-05T01:10:51.089Z,12.04
2017-05-05T01:13:18.683Z,11.80
2017-05-05T01:15:46.316Z,11.78
2017-05-05T01:18:13.895Z,13.64
2017-05-05T01:20:41.719Z,12.72
2017-05-05T01:23:09.240Z,11.94
2017-05-05T01:25:36.797Z,12.60
2017-05-05T01:28:04.351Z,11.84
2017-05-05T01:30:31.876Z,12.10
2017-05-05T01:32:59.444Z,10.80
2017-05-05T01:35:26.956Z,12.72
2017-05-05T01:37:54.770Z,12.36
2017-05-05T01:40:22.359Z,12.60
2017-05-05T01:42:49.871Z,12.08
2017-05-05T01:45:17.444Z,12.42
2017-05-05T01:47:44.975Z,13.36
2017-05-05T01:50:12.599Z,12.66
2017-05-05T01:52:40.171Z,14.12
2017-05-05T01:55:07.767Z,12.54
2017-05-05T01:57:35.382Z,13.28
2017-05-05T02:00:02.975Z,11.54
2017-05-05T02:02:30.923Z,12.32
2017-05-05T02:04:58.447Z,12.58
2017-05-05T02:07:26.001Z,13.18
2017-05-05T02:09:53.573Z,12.06
2017-05-05T02:12:21.091Z,11.98
2017-05-05T02:14:48.624Z,11.80
2017-05-05T02:17:16.179Z,12.18
2017-05-05T02:19:43.696Z,11.44
2017-05-05T02:22:11.247Z,10.78
2017-05-05T02:24:38.780Z,11.94
2017-05-05T02:27:06.712Z,10.84
2017-05-05T02:29:34.223Z,10.76
2017-05-05T02:32:01.769Z,11.98
2017-05-05T02:34:29.322Z,12.32
2017-05-05T02:36:57.075Z,10.40
2017-05-05T02:39:24.596Z,12.18
2017-05-05T02:41:52.103Z,11.08
2017-05-05T02:44:19.647Z,10.88
2017-05-05T02:46:47.167Z,12.38
2017-05-05T02:49:15.052Z,11.44
2017-05-05T02:51:42.572Z,10.40
2017-05-05T02:54:10.099Z,9.32
2017-05-05T02:56:37.655Z,10.12
2017-05-05T02:59:05.187Z,10.66
2017-05-05T03:01:32.698Z,10.28
2017-05-05T03:04:00.274Z,11.00
2017-05-05T03:06:27.789Z,11.00
2017-05-05T03:08:55.427Z,10.18
2017-05-05T03:11:23.003Z,11.86
2017-05-05T03:13:50.559Z,13.74
2017-05-05T03:16:18.211Z,11.84
2017-05-05T03:18:45.833Z,15.04
2017-05-05T03:21:13.368Z,15.12
2017-05-05T03:23:40.895Z,15.36
2017-05-05T03:26:08.448Z,15.98
2017-05-05T03:28:35.980Z,18.90
2017-05-05T03:31:03.535Z,19.80
2017-05-05T03:33:31.063Z,18.36
2017-05-05T03:35:58.607Z,22.44
2017-05-05T03:38:26.156Z,21.60
2017-05-05T03:40:53.699Z,21.66
2017-05-05T03:43:21.218Z,22.36
2017-05-05T03:45:48.784Z,23.14
2017-05-05T03:48:16.296Z,22.26
2017-05-05T03:50:43.855Z,22.64
2017-05-05T03:53:11.371Z,26.70
2017-05-05T03:55:38.989Z,30.08
2017-05-05T03:58:06.510Z,26.06
2017-05-05T04:00:34.237Z,25.74
2017-05-05T04:03:01.752Z,28.44
2017-05-05T04:05:29.282Z,26.56
2017-05-05T04:07:56.829Z,24.54
2017-05-05T04:10:24.346Z,25.32
2017-05-05T04:12:51.887Z,30.60
2017-05-05T04:15:19.414Z,28.12
2017-05-05T04:17:47.029Z,28.14
2017-05-05T04:20:14.577Z,30.08
2017-05-05T04:22:42.152Z,27.68
2017-05-05T04:25:09.673Z,28.18
2017-05-05T04:27:37.223Z,29.86
2017-05-05T04:30:04.746Z,27.40
2017-05-05T04:32:32.376Z,30.42
2017-05-05T04:34:59.907Z,32.38
2017-05-05T04:37:27.478Z,27.00
2017-05-05T04:39:55.007Z,26.28
2017-05-05T04:42:22.859Z,26.80
2017-05-05T04:44:50.471Z,33.90
2017-05-05T04:47:18.075Z,26.64
2017-05-05T04:49:45.656Z,25.82
2017-05-05T04:52:13.275Z,24.08
2017-05-05T04:54:41.155Z,26.90
2017-05-05T04:57:08.675Z,25.48
2017-05-05T04:59:36.201Z,25.14
2017-05-05T05:02:03.799Z,23.56
2017-05-05T05:04:31.327Z,25.94
2017-05-05T05:06:58.910Z,24.16
2017-05-05T05:09:26.436Z,24.46
2017-05-05T05:11:53.973Z,25.34
2017-05-05T05:14:21.571Z,28.98
2017-05-05T05:16:49.125Z,33.82
2017-05-05T05:19:16.766Z,29.98
2017-05-05T05:21:44.368Z,21.84
2017-05-05T05:24:12.287Z,23.16
2017-05-05T05:26:39.831Z,22.64
2017-05-05T05:29:07.353Z,25.44
2017-05-05T05:31:34.920Z,23.84
2017-05-05T05:34:02.595Z,23.16
2017-05-05T05:36:30.124Z,22.14
2017-05-05T05:38:57.675Z,21.34
2017-05-05T05:41:25.231Z,22.12
2017-05-05T05:43:52.754Z,20.68
2017-05-05T05:46:20.311Z,21.18
2017-05-05T05:48:47.868Z,20.06
2017-05-05T05:51:15.596Z,18.66
2017-05-05T05:53:43.119Z,18.92
2017-05-05T05:56:10.703Z,19.56
2017-05-05T05:58:38.271Z,19.60
2017-05-05T06:01:05.803Z,19.00
2017-05-05T06:03:33.434Z,19.84
2017-05-05T06:06:00.996Z,18.92
2017-05-05T06:08:28.601Z,18.10
2017-05-05T06:10:56.125Z,21.74
2017-05-05T06:13:23.696Z,21.42
2017-05-05T06:15:51.235Z,16.78
2017-05-05T06:18:18.803Z,18.06
2017-05-05T06:20:46.332Z,20.62
2017-05-05T06:23:14.060Z,21.00
2017-05-05T06:25:41.679Z,17.46
2017-05-05T06:28:09.303Z,17.44
2017-05-05T06:30:36.878Z,16.50
2017-05-05T06:33:04.411Z,14.60
2017-05-05T06:35:32.021Z,14.64
2017-05-05T06:37:59.567Z,13.52
2017-05-05T06:40:27.428Z,15.78
2017-05-05T06:42:54.958Z,11.60
2017-05-05T06:45:22.550Z,12.36
2017-05-05T06:47:50.122Z,12.46
2017-05-05T06:50:17.645Z,12.44
2017-05-05T06:52:45.217Z,14.38
2017-05-05T06:55:13.383Z,10.96
2017-05-05T06:57:41.356Z,11.34
2017-05-05T07:00:08.896Z,10.44
2017-05-05T07:02:39.209Z,11.62
2017-05-05T07:05:06.932Z,10.00
2017-05-05T07:07:34.455Z,8.92
2017-05-05T07:10:02.011Z,7.86
2017-05-05T07:12:29.528Z,9.08
2017-05-05T07:14:57.635Z,8.84
2017-05-05T07:17:25.159Z,9.58
2017-05-05T07:19:52.687Z,7.66
2017-05-05T07:22:20.249Z,8.44
2017-05-05T07:24:47.770Z,9.06
2017-05-05T07:27:15.398Z,8.98
2017-05-05T07:29:42.929Z,9.00
2017-05-05T07:32:10.569Z,8.10
2017-05-05T07:34:38.112Z,10.10
2017-05-05T07:37:05.703Z,8.16
2017-05-05T07:39:33.277Z,9.54
2017-05-05T07:42:00.840Z,9.46
2017-05-05T07:44:28.400Z,8.40
2017-05-05T07:46:55.906Z,8.22
2017-05-05T07:49:23.475Z,7.56
2017-05-05T07:51:51.003Z,8.96
2017-05-05T07:54:18.991Z,8.24
2017-05-05T07:56:46.528Z,8.40
2017-05-05T07:59:14.055Z,8.58
2017-05-05T08:01:41.634Z,9.54
2017-05-05T08:04:09.238Z,8.76
2017-05-05T08:06:36.840Z,8.30
2017-05-05T08:09:04.384Z,8.08
2017-05-05T08:11:31.945Z,8.66
2017-05-05T08:13:59.471Z,8.72
2017-05-05T08:16:27.256Z,7.52
2017-05-05T08:18:54.774Z,7.80
2017-05-05T08:21:22.313Z,8.30
2017-05-05T08:23:49.888Z,8.20
2017-05-05T08:26:17.432Z,8.08
2017-05-05T08:28:45.081Z,8.02
2017-05-05T08:31:12.652Z,6.84
2017-05-05T08:33:40.520Z,7.32
2017-05-05T08:36:08.048Z,6.62
2017-05-05T08:38:35.574Z,7.04
2017-05-05T08:41:03.132Z,6.38
2017-05-05T08:43:30.655Z,7.64
2017-05-05T08:45:58.254Z,6.38
2017-05-05T08:48:25.787Z,6.32
2017-05-05T08:50:53.576Z,6.12
2017-05-05T08:53:21.092Z,7.30
2017-05-05T08:55:48.617Z,7.36
2017-05-05T08:58:16.259Z,5.58
2017-05-05T09:00:43.804Z,7.18
2017-05-05T09:03:11.356Z,6.24
2017-05-05T09:05:38.900Z,6.56
2017-05-05T09:08:06.665Z,5.88
2017-05-05T09:10:34.249Z,5.74
2017-05-05T09:13:01.894Z,5.58
2017-05-05T09:15:29.548Z,6.04
2017-05-05T09:17:57.086Z,6.56
2017-05-05T09:20:24.846Z,6.12
2017-05-05T09:22:52.382Z,5.92
2017-05-05T09:25:23.817Z,5.16
2017-05-05T09:27:51.402Z,5.34
2017-05-05T09:30:20.146Z,5.44
2017-05-05T09:32:47.987Z,5.82
2017-05-05T09:35:16.911Z,5.98
2017-05-05T09:37:44.691Z,6.08
2017-05-05T09:40:12.230Z,5.26
2017-05-05T09:42:39.779Z,4.52
2017-05-05T09:45:07.370Z,4.54
2017-05-05T09:47:34.960Z,3.66
2017-05-05T09:50:02.621Z,5.04
2017-05-05T09:52:30.162Z,6.32
2017-05-05T09:54:57.693Z,4.12
2017-05-05T09:57:25.283Z,4.20
2017-05-05T09:59:52.808Z,4.24
2017-05-05T10:02:20.482Z,4.30
2017-05-05T10:04:48.069Z,3.70
2017-05-05T10:07:15.619Z,7.86
2017-05-05T10:09:43.236Z,4.34
2017-05-05T10:12:10.863Z,3.34
2017-05-05T10:14:38.957Z,3.12
2017-05-05T10:17:06.542Z,3.60
2017-05-05T10:19:34.084Z,2.84
2017-05-05T10:22:01.654Z,3.18
2017-05-05T10:24:29.189Z,3.82
2017-05-05T10:26:56.892Z,2.86
2017-05-05T10:29:24.462Z,2.88
2017-05-05T10:31:52.083Z,2.64
2017-05-05T10:34:19.644Z,2.62
2017-05-05T10:36:47.182Z,3.66
2017-05-05T10:39:14.761Z,3.76
2017-05-05T10:41:42.294Z,2.34
2017-05-05T10:44:10.098Z,3.94
2017-05-05T10:46:37.668Z,3.04
2017-05-05T10:49:05.195Z,2.66
2017-05-05T10:51:32.755Z,3.02
2017-05-05T10:54:00.279Z,3.32
2017-05-05T10:56:27.970Z,3.10
2017-05-05T10:58:55.508Z,3.46
2017-05-05T11:01:23.026Z,2.86
2017-05-05T11:03:50.597Z,2.98
2017-05-05T11:06:18.147Z,2.92
2017-05-05T11:08:45.944Z,3.84
2017-05-05T11:11:13.503Z,4.02
2017-05-05T11:13:41.098Z,3.38
2017-05-05T11:16:08.673Z,3.12
2017-05-05T11:18:36.269Z,3.70
2017-05-05T11:21:03.837Z,3.84
2017-05-05T11:23:31.358Z,3.52
2017-05-05T11:25:58.927Z,3.42
2017-05-05T11:28:26.439Z,4.50
2017-05-05T11:30:53.997Z,4.66
2017-05-05T11:33:21.511Z,4.52
2017-05-05T11:35:49.373Z,3.40
2017-05-05T11:38:16.915Z,3.36
2017-05-05T11:40:44.462Z,3.36
2017-05-05T11:43:12.023Z,3.88
2017-05-05T11:45:39.554Z,3.52
2017-05-05T11:48:07.253Z,4.16
2017-05-05T11:50:34.796Z,4.12
2017-05-05T11:53:02.332Z,4.32
2017-05-05T11:55:29.891Z,4.20
2017-05-05T11:57:57.395Z,4.34
2017-05-05T12:00:24.976Z,7.84
2017-05-05T12:02:52.513Z,7.88
2017-05-05T12:05:20.104Z,4.84
2017-05-05T12:07:47.786Z,6.64
2017-05-05T12:10:15.323Z,5.96
2017-05-05T12:12:42.852Z,5.40
2017-05-05T12:15:10.872Z,5.80
2017-05-05T12:17:38.398Z,4.80
2017-05-05T12:20:05.994Z,5.14
2017-05-05T12:22:33.578Z,6.70
2017-05-05T12:25:01.109Z,5.80
2017-05-05T12:27:28.819Z,53.60
2017-05-05T12:29:56.372Z,12.16
2017-05-05T12:32:24.707Z,7.86
2017-05-05T12:34:52.275Z,7.94
2017-05-05T12:37:19.805Z,7.62
2017-05-05T12:39:47.508Z,8.66
2017-05-05T12:42:15.036Z,8.48
2017-05-05T12:44:42.587Z,10.32
2017-05-05T12:47:10.162Z,9.96
2017-05-05T12:49:38.012Z,9.00
2017-05-05T12:52:05.545Z,8.38
2017-05-05T12:54:33.159Z,8.02
2017-05-05T12:57:00.796Z,8.62
2017-05-05T12:59:28.399Z,16.62
2017-05-05T13:01:55.960Z,13.82
2017-05-05T13:04:23.496Z,10.56
2017-05-05T13:06:51.073Z,15.18
2017-05-05T13:09:18.595Z,63.06
2017-05-05T13:11:46.440Z,11.56
2017-05-05T13:14:13.958Z,10.58
2017-05-05T13:16:41.516Z,9.20
2017-05-05T13:19:09.091Z,9.02
2017-05-05T13:21:36.608Z,9.46
2017-05-05T13:24:04.182Z,8.44
2017-05-05T13:26:31.704Z,10.10
2017-05-05T13:28:59.268Z,11.82
2017-05-05T13:31:26.804Z,9.18
2017-05-05T13:33:54.373Z,9.02
2017-05-05T13:36:22.024Z,8.70
2017-05-05T13:38:50.020Z,9.78
2017-05-05T13:41:17.596Z,14.16
2017-05-05T13:43:45.139Z,10.32
2017-05-05T13:46:12.771Z,10.92
2017-05-05T13:48:40.396Z,10.58
2017-05-05T13:51:07.941Z,9.60
2017-05-05T13:53:35.476Z,10.26
2017-05-05T13:56:03.419Z,10.52
2017-05-05T13:58:30.980Z,10.78
2017-05-05T14:00:58.515Z,10.74
2017-05-05T14:03:26.076Z,10.20
2017-05-05T14:05:53.642Z,10.20
2017-05-05T14:08:21.307Z,9.28
2017-05-05T14:10:48.833Z,12.68
2017-05-05T14:13:16.759Z,16.98
2017-05-05T14:15:44.307Z,11.92
2017-05-05T14:18:11.868Z,10.84
2017-05-05T14:20:39.432Z,11.02
2017-05-05T14:23:06.980Z,10.00
2017-05-05T14:25:34.559Z,10.92
2017-05-05T14:28:02.113Z,11.32
2017-05-05T14:30:29.996Z,10.98
2017-05-05T14:32:57.606Z,11.22
2017-05-05T14:35:25.153Z,12.16
2017-05-05T14:37:52.727Z,17.10
2017-05-05T14:40:20.283Z,11.98
2017-05-05T14:42:47.872Z,12.34
2017-05-05T14:45:15.406Z,15.96
2017-05-05T14:47:43.307Z,12.66
2017-05-05T14:50:10.838Z,11.56
2017-05-05T14:52:38.390Z,14.96
2017-05-05T14:55:06.012Z,13.98
2017-05-05T14:57:33.677Z,19.04
2017-05-05T15:00:01.251Z,11.62
2017-05-05T15:02:28.780Z,11.16
2017-05-05T15:04:56.451Z,13.74
2017-05-05T15:07:24.005Z,10.90
2017-05-05T15:09:51.596Z,12.86
2017-05-05T15:12:19.156Z,12.56
2017-05-05T15:14:46.715Z,12.02
2017-05-05T15:17:14.278Z,11.60
2017-05-05T15:19:41.880Z,11.30
2017-05-05T15:22:09.399Z,9.82
2017-05-05T15:24:37.414Z,8.98
2017-05-05T15:27:05.022Z,10.30
2017-05-05T15:29:32.558Z,12.66
2017-05-05T15:32:00.219Z,11.62
2017-05-05T15:34:27.758Z,11.08
2017-05-05T15:36:55.715Z,10.72
2017-05-05T15:39:23.319Z,10.46
2017-05-05T15:41:50.873Z,9.38
2017-05-05T15:44:18.449Z,12.80
2017-05-05T15:46:46.087Z,11.42
2017-05-05T15:49:13.661Z,12.10
2017-05-05T15:51:41.203Z,12.42
2017-05-05T15:54:09.149Z,10.68
2017-05-05T15:56:36.687Z,9.28
2017-05-05T15:59:04.308Z,12.96
2017-05-05T16:01:31.990Z,10.00
2017-05-05T16:03:59.542Z,9.10
2017-05-05T16:06:27.098Z,8.12
2017-05-05T16:08:54.968Z,8.00
2017-05-05T16:11:22.515Z,8.60
2017-05-05T16:13:50.056Z,7.64
2017-05-05T16:16:17.669Z,8.64
2017-05-05T16:18:45.560Z,8.18
2017-05-05T16:21:13.095Z,8.38
2017-05-05T16:23:40.632Z,9.18
2017-05-05T16:26:08.318Z,9.14
2017-05-05T16:28:35.886Z,8.28
2017-05-05T16:31:03.428Z,8.18
2017-05-05T16:33:31.107Z,9.72
2017-05-05T16:35:58.704Z,7.70
2017-05-05T16:38:26.276Z,7.74
2017-05-05T16:40:53.904Z,7.06
2017-05-05T16:43:21.449Z,8.50
2017-05-05T16:45:48.976Z,7.22
2017-05-05T16:48:16.667Z,7.98
2017-05-05T16:50:44.214Z,6.90
2017-05-05T16:53:11.773Z,7.08
2017-05-05T16:55:39.363Z,7.24
2017-05-05T16:58:06.927Z,6.86
2017-05-05T17:00:34.785Z,6.14
2017-05-05T17:03:02.361Z,6.88
2017-05-05T17:05:29.894Z,23.82
2017-05-05T17:07:57.475Z,9.28
2017-05-05T17:10:25.007Z,8.12
2017-05-05T17:12:52.882Z,7.12
2017-05-05T17:15:20.412Z,6.72
2017-05-05T17:17:47.967Z,6.98
2017-05-05T17:20:15.493Z,7.54
2017-05-05T17:22:43.026Z,7.16
2017-05-05T17:25:10.608Z,7.14
2017-05-05T17:27:38.162Z,7.86
2017-05-05T17:30:05.704Z,8.20
2017-05-05T17:32:33.266Z,7.10
2017-05-05T17:35:00.804Z,6.68
2017-05-05T17:37:28.438Z,7.50
2017-05-05T17:39:56.290Z,7.74
2017-05-05T17:42:23.827Z,12.34
2017-05-05T17:44:51.383Z,8.20
2017-05-05T17:47:18.965Z,18.66
2017-05-05T17:49:46.495Z,6.46
2017-05-05T17:52:14.087Z,6.52
2017-05-05T17:54:41.658Z,8.56
2017-05-05T17:57:09.220Z,6.86
2017-05-05T17:59:36.795Z,6.94
2017-05-05T18:02:04.370Z,6.52
2017-05-05T18:04:31.943Z,6.08
2017-05-05T18:06:59.517Z,8.60
2017-05-05T18:09:27.392Z,5.60
2017-05-05T18:11:54.947Z,7.10
2017-05-05T18:14:22.497Z,8.42
2017-05-05T18:16:50.085Z,6.76
2017-05-05T18:19:17.651Z,7.12
2017-05-05T18:21:45.204Z,5.70
2017-05-05T18:24:12.762Z,16.24
2017-05-05T18:26:40.340Z,20.84
2017-05-05T18:29:07.917Z,33.84
2017-05-05T18:31:35.524Z,7.64
2017-05-05T18:34:03.095Z,10.88
2017-05-05T18:36:30.654Z,10.14
2017-05-05T18:38:58.212Z,7.86
2017-05-05T18:41:25.736Z,8.58
2017-05-05T18:43:53.591Z,9.28
2017-05-05T18:46:21.141Z,8.66
2017-05-05T18:48:48.714Z,8.82
2017-05-05T18:51:16.292Z,8.28
2017-05-05T18:53:43.810Z,8.96
2017-05-05T18:56:11.799Z,8.18
2017-05-05T18:58:39.331Z,9.22
2017-05-05T19:01:06.857Z,7.96
2017-05-05T19:03:34.584Z,8.82
2017-05-05T19:06:02.106Z,9.92
2017-05-05T19:08:29.633Z,9.58
2017-05-05T19:10:57.189Z,9.44
2017-05-05T19:13:24.735Z,9.72
2017-05-05T19:15:52.280Z,9.48
2017-05-05T19:18:19.796Z,8.94
2017-05-05T19:20:47.371Z,9.78
2017-05-05T19:23:14.930Z,10.46
2017-05-05T19:25:42.466Z,51.54
2017-05-05T19:28:10.148Z,11.24
2017-05-05T19:30:37.700Z,11.24
2017-05-05T19:33:05.550Z,11.56
2017-05-05T19:35:33.085Z,10.66
2017-05-05T19:38:00.664Z,10.22
2017-05-05T19:40:28.239Z,10.80
2017-05-05T19:42:55.751Z,10.66
2017-05-05T19:45:23.620Z,10.54
2017-05-05T19:47:51.165Z,9.24
2017-05-05T19:50:18.709Z,8.40
2017-05-05T19:52:46.524Z,10.32
2017-05-05T19:55:14.056Z,8.98
2017-05-05T19:57:41.586Z,9.30
2017-05-05T20:00:09.141Z,10.42
2017-05-05T20:02:36.714Z,8.52
2017-05-05T20:05:04.540Z,10.94
2017-05-05T20:07:32.079Z,10.12
2017-05-05T20:09:59.677Z,10.54
2017-05-05T20:12:27.302Z,8.90
2017-05-05T20:14:55.357Z,10.22
2017-05-05T20:17:22.875Z,9.06
2017-05-05T20:19:50.415Z,13.78
2017-05-05T20:22:17.971Z,12.08
2017-05-05T20:24:45.812Z,10.24
2017-05-05T20:27:13.358Z,12.14
2017-05-05T20:29:40.887Z,10.74
2017-05-05T20:32:08.450Z,21.28
2017-05-05T20:34:35.982Z,28.26
2017-05-05T20:37:03.588Z,9.14
2017-05-05T20:39:31.119Z,10.00
2017-05-05T20:41:58.686Z,9.20
2017-05-05T20:44:26.520Z,9.40
2017-05-05T20:46:54.047Z,9.32
2017-05-05T20:49:21.559Z,8.90
2017-05-05T20:51:49.120Z,10.18
2017-05-05T20:54:16.652Z,9.74
2017-05-05T20:56:44.203Z,9.46
2017-05-05T20:59:11.722Z,9.62
2017-05-05T21:01:39.351Z,11.02
2017-05-05T21:04:06.863Z,10.04
2017-05-05T21:06:34.392Z,11.52
2017-05-05T21:09:02.359Z,10.52
2017-05-05T21:11:29.893Z,10.62
2017-05-05T21:13:57.423Z,10.18
2017-05-05T21:16:24.992Z,11.12
2017-05-05T21:18:52.540Z,12.36
2017-05-05T21:21:20.097Z,10.70
2017-05-05T21:23:47.624Z,10.84
2017-05-05T21:26:15.204Z,9.94
2017-05-05T21:28:42.724Z,12.08
2017-05-05T21:31:10.241Z,9.30
2017-05-05T21:33:37.819Z,15.40
2017-05-05T21:36:05.381Z,29.10
2017-05-05T21:38:33.300Z,11.46
2017-05-05T21:41:00.836Z,10.82
2017-05-05T21:43:28.359Z,10.64
2017-05-05T21:45:55.949Z,10.92
2017-05-05T21:48:23.477Z,9.88
2017-05-05T21:50:51.028Z,11.68
2017-05-05T21:53:18.551Z,10.94
2017-05-05T21:55:46.131Z,9.88
2017-05-05T21:58:13.660Z,10.34
2017-05-05T22:00:41.177Z,10.28
2017-05-05T22:03:08.719Z,9.38
2017-05-05T22:05:36.271Z,9.98
2017-05-05T22:08:03.822Z,12.14
2017-05-05T22:10:31.361Z,10.74
2017-05-05T22:12:59.001Z,10.62
2017-05-05T22:15:26.532Z,8.42
2017-05-05T22:17:54.261Z,10.36
2017-05-05T22:20:22.020Z,10.34
2017-05-05T22:22:49.582Z,9.70
2017-05-05T22:25:17.143Z,8.96
2017-05-05T22:27:44.690Z,8.72
2017-05-05T22:30:12.411Z,10.30
2017-05-05T22:32:40.009Z,9.66
2017-05-05T22:35:07.732Z,9.10
2017-05-05T22:37:35.310Z,8.42
2017-05-05T22:40:02.831Z,9.30
2017-05-05T22:42:30.632Z,10.64
2017-05-05T22:44:58.159Z,8.76
2017-05-05T22:47:25.882Z,8.68
2017-05-05T22:49:53.453Z,9.58
2017-05-05T22:52:21.086Z,8.94
2017-05-05T22:54:48.648Z,11.34
2017-05-05T22:57:16.156Z,8.88
2017-05-05T22:59:43.733Z,9.50
2017-05-05T23:02:11.259Z,9.18
2017-05-05T23:04:38.815Z,8.44
2017-05-05T23:07:06.327Z,9.22
2017-05-05T23:09:34.011Z,9.94
2017-05-05T23:12:01.526Z,12.72
2017-05-05T23:14:29.044Z,8.36
2017-05-05T23:16:56.694Z,9.02
2017-05-05T23:19:24.221Z,8.60
2017-05-05T23:21:51.784Z,9.76
2017-05-05T23:24:19.297Z,8.28
2017-05-05T23:26:46.868Z,8.68
2017-05-05T23:29:14.387Z,8.80
2017-05-05T23:31:42.156Z,7.94
2017-05-05T23:34:09.716Z,8.80
2017-05-05T23:36:37.242Z,19.18
2017-05-05T23:39:04.792Z,8.10
2017-05-05T23:41:32.296Z,8.82
2017-05-05T23:43:59.925Z,7.78
2017-05-05T23:46:27.456Z,7.84
2017-05-05T23:48:55.173Z,9.06
2017-05-05T23:51:22.690Z,8.44
2017-05-05T23:53:50.252Z,8.32
2017-05-05T23:56:17.792Z,8.66
2017-05-05T23:58:45.310Z,9.40
